Time;durP1;ratioP1;P1;durP2;ratioP2;P2;SDS_P1;SDS_P2;PMS_P1;PMS_P2;Temp;Humidity;BMP_temperature;BMP_pressure;BME280_temperature;BME280_humidity;BME280_pressure;Samples;Min_cycle;Max_cycle;Signal;HPM_P1;HPM_P2
2023/11/25 00:02:06;;;;;;;2.85;0.38;;;;;;;-0.18;69.65;99525.53;5077730;28;20460;-73
2023/11/25 00:04:33;;;;;;;1.63;0.40;;;;;;;-0.20;69.61;99520.38;5077194;28;20099;-74
2023/11/25 00:07:00;;;;;;;0.85;0.20;;;;;;;-0.18;69.37;99525.53;5078301;28;20048;-74
2023/11/25 00:09:27;;;;;;;4.85;0.75;;;;;;;-0.19;69.88;99522.13;5076477;28;20095;-74
2023/11/25 00:11:54;;;;;;;2.33;0.30;;;;;;;-0.17;69.79;99529.81;5077281;28;20125;-74
2023/11/25 00:14:21;;;;;;;3.15;0.35;;;;;;;-0.20;70.28;99524.66;5076422;28;20541;-74
2023/11/25 00:16:48;;;;;;;0.85;0.45;;;;;;;-0.18;69.74;99539.22;5076465;28;20128;-74
2023/11/25 00:19:16;;;;;;;1.27;0.30;;;;;;;-0.19;69.83;99552.06;5076438;28;20464;-74
2023/11/25 00:21:43;;;;;;;0.40;0.22;;;;;;;-0.19;69.93;99547.78;5076729;28;20084;-74
2023/11/25 00:24:10;;;;;;;4.00;0.38;;;;;;;-0.20;69.96;99550.31;5076221;28;20552;-74
2023/11/25 00:26:37;;;;;;;2.75;0.40;;;;;;;-0.20;69.27;99558.03;5076164;28;20048;-74
2023/11/25 00:29:04;;;;;;;1.25;0.30;;;;;;;-0.20;69.81;99550.31;5077254;28;20102;-73
2023/11/25 00:31:33;;;;;;;0.55;0.13;;;;;;;-0.20;69.40;99563.16;5076180;28;20044;-74
2023/11/25 00:34:00;;;;;;;0.75;0.30;;;;;;;-0.22;69.70;99567.44;5076685;28;20067;-74
2023/11/25 00:36:28;;;;;;;0.50;0.30;;;;;;;-0.23;69.23;99574.25;5076210;28;20128;-73
2023/11/25 00:38:55;;;;;;;1.50;0.20;;;;;;;-0.24;69.84;99586.25;5076441;28;20547;-74
2023/11/25 00:41:22;;;;;;;0.90;0.30;;;;;;;-0.25;69.53;99576.84;5076062;28;20132;-74
2023/11/25 00:43:48;;;;;;;0.60;0.30;;;;;;;-0.25;69.71;99579.41;5076886;28;20446;-76
2023/11/25 00:46:15;;;;;;;0.85;0.30;;;;;;;-0.26;69.58;99582.84;5075979;28;20083;-76
2023/11/25 00:48:43;;;;;;;1.58;0.40;;;;;;;-0.26;69.44;99590.53;5075955;28;20557;-76
2023/11/25 00:51:10;;;;;;;1.02;0.50;;;;;;;-0.25;70.20;99599.09;5075752;28;20131;-75
2023/11/25 00:53:39;;;;;;;1.05;0.30;;;;;;;-0.26;70.33;99598.22;5075847;28;20454;-74
2023/11/25 00:56:07;;;;;;;1.90;0.35;;;;;;;-0.27;69.89;99606.75;5075742;28;20048;-74
2023/11/25 00:58:34;;;;;;;1.25;0.55;;;;;;;-0.29;70.50;99605.88;5075750;28;20059;-74
2023/11/25 01:01:01;;;;;;;0.73;0.32;;;;;;;-0.29;70.23;99613.56;5075038;28;20076;-73
2023/11/25 01:03:28;;;;;;;0.90;0.40;;;;;;;-0.30;69.61;99619.56;5076879;28;20167;-73
2023/11/25 01:05:55;;;;;;;2.17;0.60;;;;;;;-0.30;69.38;99618.72;5075712;28;20123;-74
2023/11/25 01:08:25;;;;;;;4.10;0.98;;;;;;;-0.32;69.56;99608.44;5075497;28;20040;-74
2023/11/25 01:10:54;;;;;;;0.63;0.30;;;;;;;-0.32;70.19;99613.56;5075415;28;20048;-73
2023/11/25 01:13:21;;;;;;;1.35;0.30;;;;;;;-0.32;69.19;99617.84;5076164;28;20541;-74
2023/11/25 01:15:48;;;;;;;0.05;0.05;;;;;;;-0.32;70.20;99618.69;5075490;28;20215;-73
2023/11/25 01:18:14;;;;;;;0.65;0.40;;;;;;;-0.37;69.61;99625.53;5076218;28;20072;-74
2023/11/25 01:20:42;;;;;;;1.50;0.40;;;;;;;-0.34;69.59;99629.78;5075213;28;20128;-74
2023/11/25 01:23:10;;;;;;;0.98;0.50;;;;;;;-0.36;69.31;99632.34;5075275;28;20413;-74
2023/11/25 01:25:37;;;;;;;2.67;0.50;;;;;;;-0.36;69.59;99640.06;5075781;28;20119;-74
2023/11/25 01:28:06;;;;;;;1.15;0.40;;;;;;;-0.35;69.34;99640.91;5075610;28;20456;-74
2023/11/25 01:30:33;;;;;;;0.77;0.32;;;;;;;-0.36;69.67;99645.19;5076220;28;20499;-74
2023/11/25 01:33:00;;;;;;;0.90;0.40;;;;;;;-0.36;69.39;99652.03;5076050;28;20053;-74
2023/11/25 01:35:27;;;;;;;4.10;0.82;;;;;;;-0.38;68.80;99657.13;5075194;28;20053;-74
2023/11/25 01:37:54;;;;;;;0.60;0.30;;;;;;;-0.39;68.80;99659.72;5074957;28;20053;-74
2023/11/25 01:40:23;;;;;;;1.42;0.50;;;;;;;-0.43;68.80;99656.25;5075781;28;20044;-73
2023/11/25 01:42:50;;;;;;;4.20;0.50;;;;;;;-0.43;68.86;99650.25;5075515;28;20131;-74
2023/11/25 01:45:18;;;;;;;1.00;0.57;;;;;;;-0.43;68.99;99656.25;5075838;28;20087;-74
2023/11/25 01:47:45;;;;;;;2.30;0.80;;;;;;;-0.43;68.54;99665.66;5074709;28;20045;-74
2023/11/25 01:50:12;;;;;;;2.25;0.32;;;;;;;-0.43;69.08;99663.94;5074721;28;20131;-74
2023/11/25 01:52:40;;;;;;;0.93;0.43;;;;;;;-0.45;69.03;99678.47;5075737;28;20123;-74
2023/11/25 01:55:09;;;;;;;2.35;0.50;;;;;;;-0.45;69.47;99683.59;5075454;28;20405;-78
2023/11/25 01:57:36;;;;;;;1.92;0.45;;;;;;;-0.45;69.05;99693.88;5074568;28;20045;-78
2023/11/25 02:00:07;;;;;;;0.50;0.40;;;;;;;-0.49;68.62;99692.09;5074744;28;20135;-77
2023/11/25 02:02:36;;;;;;;1.02;0.40;;;;;;;-0.47;68.53;99696.41;5075051;28;20056;-78
2023/11/25 02:05:03;;;;;;;1.25;0.50;;;;;;;-0.49;68.35;99715.19;5075359;28;20063;-77
2023/11/25 02:07:30;;;;;;;4.50;0.50;;;;;;;-0.50;68.25;99711.78;5074347;28;20048;-77
2023/11/25 02:09:58;;;;;;;3.90;1.65;;;;;;;-0.51;68.37;99709.22;5075436;28;20048;-78
2023/11/25 02:12:25;;;;;;;1.60;0.40;;;;;;;-0.50;68.05;99727.16;5074410;28;20052;-77
2023/11/25 02:14:53;;;;;;;4.63;0.60;;;;;;;-0.54;66.76;99719.41;5074282;28;20211;-77
2023/11/25 02:17:21;;;;;;;1.15;0.38;;;;;;;-0.55;66.55;99725.41;5075157;28;20063;-77
2023/11/25 02:19:49;;;;;;;0.98;0.28;;;;;;;-0.56;67.12;99721.97;5074405;28;20131;-77
2023/11/25 02:22:16;;;;;;;1.27;0.50;;;;;;;-0.57;66.42;99729.66;5074547;28;20465;-77
2023/11/25 02:24:45;;;;;;;2.17;0.40;;;;;;;-0.57;67.33;99734.78;5075070;28;20371;-77
2023/11/25 02:27:13;;;;;;;2.83;0.50;;;;;;;-0.58;66.99;99740.75;5074040;28;20044;-77
2023/11/25 02:29:40;;;;;;;1.45;0.30;;;;;;;-0.60;67.27;99737.31;5074959;28;20041;-77
2023/11/25 02:32:09;;;;;;;1.48;0.50;;;;;;;-0.59;67.20;99749.31;5074099;28;20076;-77
2023/11/25 02:34:36;;;;;;;1.02;0.40;;;;;;;-0.59;67.38;99747.59;5074738;28;20041;-77
2023/11/25 02:37:06;;;;;;;0.75;0.35;;;;;;;-0.59;68.01;99754.44;5073791;28;20079;-77
2023/11/25 02:39:34;;;;;;;2.50;0.60;;;;;;;-0.59;67.65;99754.44;5074384;28;20491;-77
2023/11/25 02:42:05;;;;;;;0.47;0.32;;;;;;;-0.59;67.91;99767.28;5073959;28;20049;-77
2023/11/25 02:44:32;;;;;;;1.85;0.60;;;;;;;-0.59;68.16;99763.00;5074736;28;20074;-77
2023/11/25 02:46:59;;;;;;;1.08;0.40;;;;;;;-0.58;67.26;99771.53;5073574;28;20131;-77
2023/11/25 02:49:26;;;;;;;4.72;0.75;;;;;;;-0.59;67.64;99777.53;5073661;28;20051;-77
2023/11/25 02:51:54;;;;;;;1.92;0.40;;;;;;;-0.62;67.75;99769.81;5073634;28;20055;-77
2023/11/25 02:54:22;;;;;;;1.65;0.50;;;;;;;-0.59;67.87;99782.66;5073857;28;20044;-77
2023/11/25 02:56:49;;;;;;;2.60;0.40;;;;;;;-0.60;67.86;99797.16;5074693;28;20049;-77
2023/11/25 02:59:18;;;;;;;2.45;0.65;;;;;;;-0.59;68.24;99788.66;5073499;28;20040;-77
2023/11/25 03:01:51;;;;;;;1.40;0.60;;;;;;;-0.60;68.35;99786.03;5073601;28;20055;-77
2023/11/25 03:04:19;;;;;;;1.90;0.60;;;;;;;-0.60;68.53;99789.47;5074882;28;20131;-76
2023/11/25 03:06:46;;;;;;;0.98;0.47;;;;;;;-0.61;68.36;99790.31;5073621;28;20044;-76
2023/11/25 03:09:14;;;;;;;2.53;0.70;;;;;;;-0.60;68.30;99786.03;5073405;28;20045;-76
2023/11/25 03:11:41;;;;;;;1.90;0.60;;;;;;;-0.60;68.32;99802.28;5073324;28;20075;-76
2023/11/25 03:14:08;;;;;;;1.52;0.75;;;;;;;-0.60;68.63;99807.41;5074529;28;20418;-76
2023/11/25 03:16:37;;;;;;;2.28;0.38;;;;;;;-0.60;68.91;99802.28;5073229;28;20131;-77
2023/11/25 03:19:05;;;;;;;2.10;0.60;;;;;;;-0.61;67.67;99815.13;5073270;28;20076;-77
2023/11/25 03:21:33;;;;;;;0.90;0.43;;;;;;;-0.62;68.75;99805.72;5073139;28;20074;-77
2023/11/25 03:24:00;;;;;;;3.70;0.40;;;;;;;-0.65;68.16;99811.66;5072808;28;20055;-77
2023/11/25 03:26:28;;;;;;;2.97;0.50;;;;;;;-0.62;68.16;99824.53;5074568;28;20123;-77
2023/11/25 03:28:54;;;;;;;1.67;0.50;;;;;;;-0.63;68.89;99824.50;5073244;28;20040;-77
2023/11/25 03:31:23;;;;;;;3.28;0.45;;;;;;;-0.61;68.47;99827.94;5074134;28;20132;-77
2023/11/25 03:33:51;;;;;;;1.13;0.40;;;;;;;-0.61;68.36;99841.63;5073104;28;20098;-76
2023/11/25 03:36:18;;;;;;;2.55;0.40;;;;;;;-0.62;67.95;99834.78;5073126;28;20132;-76
2023/11/25 03:38:45;;;;;;;1.45;0.45;;;;;;;-0.63;68.16;99835.59;5074104;28;20513;-77
2023/11/25 03:41:12;;;;;;;0.30;0.30;;;;;;;-0.64;68.07;99845.84;5072992;28;20132;-77
2023/11/25 03:43:39;;;;;;;1.38;0.40;;;;;;;-0.66;67.83;99847.53;5073142;28;20497;-77
2023/11/25 03:46:06;;;;;;;0.80;0.40;;;;;;;-0.69;67.36;99862.03;5073004;28;20133;-77
2023/11/25 03:48:34;;;;;;;1.45;0.32;;;;;;;-0.71;67.78;99861.19;5073109;28;20071;-77
2023/11/25 03:51:04;;;;;;;0.60;0.20;;;;;;;-0.74;67.63;99876.53;5073185;28;20075;-77
2023/11/25 03:53:31;;;;;;;2.50;0.30;;;;;;;-0.76;67.00;99867.94;5074190;28;20074;-77
2023/11/25 03:55:59;;;;;;;1.15;0.10;;;;;;;-0.79;67.20;99877.31;5073804;28;20124;-77
2023/11/25 03:58:26;;;;;;;0.57;0.30;;;;;;;-0.83;67.26;99881.50;5074038;28;20094;-77
2023/11/25 04:00:54;;;;;;;1.58;0.20;;;;;;;-0.85;66.93;99888.34;5072726;28;20128;-77
2023/11/25 04:03:20;;;;;;;0.32;0.20;;;;;;;-0.87;67.27;99890.03;5073732;28;20052;-77
2023/11/25 04:05:47;;;;;;;0.25;0.20;;;;;;;-0.90;67.05;99900.22;5073318;28;20541;-77
2023/11/25 04:08:16;;;;;;;2.55;0.25;;;;;;;-0.92;65.74;99904.47;5073178;28;20080;-77
2023/11/25 04:10:43;;;;;;;0.85;0.38;;;;;;;-0.97;65.99;99900.97;5072821;28;20044;-76
2023/11/25 04:13:10;;;;;;;0.30;0.20;;;;;;;-1.00;66.06;99914.59;5072884;28;20044;-80
2023/11/25 04:15:36;;;;;;;1.40;0.10;;;;;;;-1.02;65.20;99920.59;5073288;28;20083;-80
2023/11/25 04:18:04;;;;;;;0.70;0.10;;;;;;;-1.05;65.60;99923.06;5073154;28;20501;-80
2023/11/25 04:20:33;;;;;;;1.55;0.10;;;;;;;-1.09;65.32;99923.88;5073078;28;20040;-79
2023/11/25 04:23:05;;;;;;;0.20;0.10;;;;;;;-1.12;65.67;99929.81;5073302;28;20554;-80
2023/11/25 04:25:34;;;;;;;1.20;0.28;;;;;;;-1.17;64.07;99924.63;5072782;28;20048;-77
2023/11/25 04:28:04;;;;;;;0.60;0.10;;;;;;;-1.23;64.14;99927.09;5073607;28;20048;-77
2023/11/25 04:30:31;;;;;;;0.10;0.10;;;;;;;-1.25;64.25;99913.41;5073383;28;20056;-77
2023/11/25 04:32:59;;;;;;;0.10;0.00;;;;;;;-1.27;64.47;99920.19;5072392;28;20512;-77
2023/11/25 04:35:26;;;;;;;0.10;0.00;;;;;;;-1.30;64.17;99934.66;5073596;28;20424;-77
2023/11/25 04:37:53;;;;;;;1.40;0.10;;;;;;;-1.33;64.62;99935.47;5076397;28;20378;-76
2023/11/25 04:40:20;;;;;;;3.20;0.10;;;;;;;-1.37;64.50;99931.13;5077036;28;20079;-77
2023/11/25 04:42:48;;;;;;;0.50;0.10;;;;;;;-1.38;64.33;99944.78;5076641;28;20123;-77
2023/11/25 04:45:16;;;;;;;0.13;0.10;;;;;;;-1.41;63.84;99947.28;5076086;28;20128;-77
2023/11/25 04:47:45;;;;;;;0.00;0.00;;;;;;;-1.45;64.24;99954.06;5076244;28;20070;-77
2023/11/25 04:50:12;;;;;;;0.80;0.10;;;;;;;-1.48;63.21;99946.34;5076146;28;20045;-77
2023/11/25 04:52:39;;;;;;;0.30;0.00;;;;;;;-1.51;63.51;99950.53;5076104;28;20067;-77
2023/11/25 04:55:08;;;;;;;0.10;0.00;;;;;;;-1.54;63.50;99950.47;5076475;28;20087;-77
2023/11/25 04:57:35;;;;;;;0.40;0.10;;;;;;;-1.59;63.58;99941.03;5075995;28;20580;-77
2023/11/25 05:00:05;;;;;;;1.00;0.10;;;;;;;-1.63;62.20;99944.34;5075724;28;20045;-77
2023/11/25 05:02:32;;;;;;;2.65;0.30;;;;;;;-1.64;63.32;99944.34;5076337;28;20132;-77
2023/11/25 05:04:59;;;;;;;0.20;0.10;;;;;;;-1.67;63.16;99934.91;5075984;28;20082;-77
2023/11/25 05:07:26;;;;;;;0.52;0.03;;;;;;;-1.70;62.93;99957.91;5076438;28;20493;-77
2023/11/25 05:09:53;;;;;;;1.63;0.10;;;;;;;-1.71;63.07;99952.75;5075477;28;20127;-76
2023/11/25 05:12:20;;;;;;;3.03;0.10;;;;;;;-1.74;62.91;99953.53;5075876;28;20080;-77
2023/11/25 05:14:47;;;;;;;0.90;0.08;;;;;;;-1.75;63.13;99956.94;5075499;28;20083;-77
2023/11/25 05:17:15;;;;;;;0.20;0.10;;;;;;;-1.79;63.67;99962.88;5076291;28;20134;-77
2023/11/25 05:19:42;;;;;;;0.20;0.10;;;;;;;-1.79;63.52;99970.56;5076456;28;20079;-77
2023/11/25 05:22:10;;;;;;;0.75;0.00;;;;;;;-1.81;64.40;99974.75;5075218;28;20094;-77
2023/11/25 05:24:36;;;;;;;1.55;0.10;;;;;;;-1.83;64.08;99974.72;5076064;28;20371;-75
2023/11/25 05:27:04;;;;;;;0.10;0.10;;;;;;;-1.85;64.14;99986.66;5075201;28;20131;-75
2023/11/25 05:29:31;;;;;;;1.90;0.10;;;;;;;-1.86;64.06;99984.91;5075089;28;20044;-74
2023/11/25 05:31:58;;;;;;;2.00;0.10;;;;;;;-1.89;64.28;99991.69;5075330;28;20080;-74
2023/11/25 05:34:26;;;;;;;0.35;0.30;;;;;;;-1.89;64.50;100001.91;5075202;28;20132;-73
2023/11/25 05:36:53;;;;;;;0.10;0.10;;;;;;;-1.93;64.67;100001.00;5075827;28;20123;-73
2023/11/25 05:39:20;;;;;;;0.10;0.00;;;;;;;-1.96;64.58;99992.41;5075310;28;20080;-74
2023/11/25 05:41:48;;;;;;;0.10;0.10;;;;;;;-1.93;64.80;100000.13;5075056;28;20044;-74
2023/11/25 05:44:15;;;;;;;0.43;0.10;;;;;;;-1.96;64.95;99998.38;5074810;28;20041;-74
2023/11/25 05:46:42;;;;;;;0.10;0.10;;;;;;;-1.95;64.83;100004.34;5074343;28;20071;-74
2023/11/25 05:49:09;;;;;;;0.20;0.10;;;;;;;-1.96;64.62;100013.75;5074712;28;20076;-74
2023/11/25 05:51:42;;;;;;;0.85;0.10;;;;;;;-1.97;65.34;100011.13;5074648;28;20135;-74
2023/11/25 05:54:12;;;;;;;0.08;0.00;;;;;;;-1.98;64.81;100006.84;5075773;28;20051;-74
2023/11/25 05:56:40;;;;;;;0.28;0.10;;;;;;;-1.98;64.98;100017.09;5075919;28;20432;-73
2023/11/25 05:59:08;;;;;;;0.00;0.00;;;;;;;-1.99;65.26;100007.66;5074489;28;20048;-73
2023/11/25 06:01:35;;;;;;;0.20;0.10;;;;;;;-2.00;65.11;100016.19;5074310;28;20055;-73
2023/11/25 06:04:02;;;;;;;0.10;0.10;;;;;;;-2.09;65.44;100007.50;5075604;28;20056;-73
2023/11/25 06:06:29;;;;;;;0.47;0.00;;;;;;;-2.01;65.37;100029.84;5074321;28;20131;-74
2023/11/25 06:08:58;;;;;;;0.65;0.10;;;;;;;-2.03;65.80;100017.84;5074656;28;20079;-74
2023/11/25 06:11:26;;;;;;;0.30;0.00;;;;;;;-2.04;65.47;100021.25;5074302;28;20131;-74
2023/11/25 06:13:54;;;;;;;1.55;0.10;;;;;;;-2.04;65.87;100021.25;5074755;28;20049;-74
2023/11/25 06:16:21;;;;;;;1.55;0.20;;;;;;;-2.05;65.62;100027.22;5075075;28;20044;-74
2023/11/25 06:18:48;;;;;;;0.10;0.00;;;;;;;-2.06;65.66;100022.91;5075516;28;20432;-74
2023/11/25 06:21:15;;;;;;;2.80;0.75;;;;;;;-2.05;65.78;100028.88;5074599;28;20571;-74
2023/11/25 06:23:43;;;;;;;1.20;0.20;;;;;;;-2.08;65.61;100034.84;5074063;28;20045;-74
2023/11/25 06:26:11;;;;;;;0.22;0.13;;;;;;;-2.08;65.84;100037.38;5075016;28;20048;-75
2023/11/25 06:28:42;;;;;;;0.85;0.10;;;;;;;-2.08;65.65;100034.84;5073886;28;20079;-73
2023/11/25 06:31:09;;;;;;;1.08;0.10;;;;;;;-2.12;65.92;100022.78;5074072;28;20063;-74
2023/11/25 06:33:36;;;;;;;0.93;0.10;;;;;;;-2.10;65.82;100036.50;5074071;28;20048;-74
2023/11/25 06:36:04;;;;;;;0.10;0.10;;;;;;;-2.11;65.99;100026.19;5073898;28;20127;-74
2023/11/25 06:38:32;;;;;;;0.95;0.10;;;;;;;-2.15;66.15;100027.84;5073838;28;20503;-74
2023/11/25 06:41:00;;;;;;;0.10;0.00;;;;;;;-2.16;66.11;100035.47;5073932;28;20135;-74
2023/11/25 06:43:29;;;;;;;0.10;0.05;;;;;;;-2.13;66.03;100050.91;5074572;28;20048;-78
2023/11/25 06:45:56;;;;;;;0.50;0.20;;;;;;;-2.15;66.20;100048.31;5074985;28;20136;-77
2023/11/25 06:48:24;;;;;;;0.32;0.10;;;;;;;-2.17;67.01;100044.84;5073627;28;20132;-78
2023/11/25 06:50:51;;;;;;;0.13;0.08;;;;;;;-2.21;66.43;100053.31;5073567;28;20460;-78
2023/11/25 06:53:18;;;;;;;0.10;0.10;;;;;;;-2.17;66.32;100070.44;5073827;28;20135;-78
2023/11/25 06:55:45;;;;;;;0.77;0.15;;;;;;;-2.17;66.56;100072.13;5073511;28;20088;-77
2023/11/25 06:58:12;;;;;;;2.72;0.20;;;;;;;-2.18;66.26;100072.97;5072975;28;20048;-77
2023/11/25 07:00:41;;;;;;;1.80;0.10;;;;;;;-2.21;67.10;100066.09;5073500;28;20080;-76
2023/11/25 07:03:08;;;;;;;0.40;0.10;;;;;;;-2.20;66.58;100077.19;5073808;28;20135;-77
2023/11/25 07:05:36;;;;;;;0.15;0.10;;;;;;;-2.20;66.96;100075.50;5073405;28;20048;-78
2023/11/25 07:08:05;;;;;;;0.28;0.10;;;;;;;-2.20;67.08;100080.59;5074500;28;20056;-77
2023/11/25 07:10:34;;;;;;;0.17;0.10;;;;;;;-2.20;67.16;100085.72;5074924;28;20417;-78
2023/11/25 07:13:02;;;;;;;0.60;0.10;;;;;;;-2.19;67.48;100081.47;5074391;28;20044;-78
2023/11/25 07:15:29;;;;;;;0.20;0.10;;;;;;;-2.19;67.34;100078.91;5073291;28;20136;-78
2023/11/25 07:17:58;;;;;;;0.50;0.08;;;;;;;-2.18;67.27;100088.34;5073191;28;20044;-78
2023/11/25 07:20:24;;;;;;;1.15;0.10;;;;;;;-2.19;67.69;100084.91;5074149;28;20444;-78
2023/11/25 07:22:51;;;;;;;1.67;0.10;;;;;;;-2.18;67.28;100090.88;5073230;28;20080;-78
2023/11/25 07:25:18;;;;;;;0.75;0.17;;;;;;;-2.18;67.50;100099.41;5074324;28;20049;-78
2023/11/25 07:27:46;;;;;;;0.40;0.10;;;;;;;-2.19;67.99;100097.72;5074096;28;20072;-78
2023/11/25 07:30:15;;;;;;;1.95;0.20;;;;;;;-2.19;68.14;100097.72;5073795;28;20047;-78
2023/11/25 07:32:43;;;;;;;0.30;0.20;;;;;;;-2.17;68.10;100108.81;5074039;28;20099;-78
2023/11/25 07:35:12;;;;;;;1.40;0.20;;;;;;;-2.17;67.70;100111.38;5073169;28;20067;-78
2023/11/25 07:37:39;;;;;;;1.85;0.10;;;;;;;-2.17;68.38;100110.50;5073100;28;20063;-76
2023/11/25 07:40:13;;;;;;;1.10;0.13;;;;;;;-2.15;68.01;100111.41;5074197;28;20076;-76
2023/11/25 07:42:41;;;;;;;0.38;0.10;;;;;;;-2.21;68.05;100117.25;5073587;28;20048;-75
2023/11/25 07:45:10;;;;;;;0.75;0.08;;;;;;;-2.14;68.33;100118.25;5073944;28;20477;-81
2023/11/25 07:47:37;;;;;;;0.63;0.10;;;;;;;-2.17;67.78;100107.97;5073680;28;20101;-81
2023/11/25 07:50:04;;;;;;;1.23;0.22;;;;;;;-2.12;68.19;100120.03;5074115;28;20460;-81
2023/11/25 07:52:33;;;;;;;0.22;0.20;;;;;;;-2.13;68.89;100112.34;5074145;28;20132;-81
2023/11/25 07:55:00;;;;;;;1.65;0.00;;;;;;;-2.12;68.74;100114.91;5073464;28;20091;-74
2023/11/25 07:57:27;;;;;;;0.38;0.10;;;;;;;-2.09;68.92;100117.53;5073020;28;20541;-74
2023/11/25 07:59:55;;;;;;;1.13;0.30;;;;;;;-2.08;68.32;100119.28;5072977;28;20045;-74
2023/11/25 08:02:22;;;;;;;0.30;0.20;;;;;;;-2.06;68.86;100119.28;5073682;28;20049;-74
2023/11/25 08:04:51;;;;;;;0.70;0.20;;;;;;;-2.04;68.81;100122.75;5073575;28;20451;-74
2023/11/25 08:07:18;;;;;;;2.25;0.30;;;;;;;-2.03;69.02;100119.34;5072826;28;20080;-74
2023/11/25 08:09:47;;;;;;;1.00;0.30;;;;;;;-2.03;69.18;100120.22;5073753;28;20049;-74
2023/11/25 08:12:14;;;;;;;1.05;0.20;;;;;;;-2.02;68.80;100123.66;5076659;28;20060;-74
2023/11/25 08:14:42;;;;;;;1.17;0.17;;;;;;;-2.01;68.75;100134.75;5076808;28;20072;-75
2023/11/25 08:17:10;;;;;;;1.23;0.20;;;;;;;-2.03;68.45;100133.00;5076646;28;20045;-75
2023/11/25 08:19:37;;;;;;;0.82;0.30;;;;;;;-2.02;69.37;100123.66;5076542;28;20056;-74
2023/11/25 08:22:04;;;;;;;1.10;0.20;;;;;;;-2.01;68.79;100133.06;5077714;28;20128;-74
2023/11/25 08:24:31;;;;;;;2.03;0.25;;;;;;;-2.00;68.99;100133.91;5077377;28;20049;-75
2023/11/25 08:26:59;;;;;;;0.38;0.30;;;;;;;-2.00;69.27;100131.34;5076514;28;20131;-75
2023/11/25 08:29:26;;;;;;;0.60;0.20;;;;;;;-1.99;69.16;100140.75;5077682;28;20547;-76
2023/11/25 08:31:53;;;;;;;1.23;0.30;;;;;;;-1.98;68.80;100139.94;5076124;28;20131;-76
2023/11/25 08:34:20;;;;;;;0.52;0.30;;;;;;;-1.98;69.55;100142.50;5076961;28;20548;-76
2023/11/25 08:36:52;;;;;;;2.33;0.30;;;;;;;-2.00;68.72;100134.78;5076467;28;20080;-75
2023/11/25 08:39:21;;;;;;;0.85;0.20;;;;;;;-1.99;69.22;100143.31;5077155;28;20082;-75
2023/11/25 08:41:48;;;;;;;0.43;0.20;;;;;;;-2.03;69.18;100134.72;5076838;28;20389;-75
2023/11/25 08:44:16;;;;;;;0.30;0.20;;;;;;;-2.00;68.85;100149.28;5075931;28;20049;-75
2023/11/25 08:46:44;;;;;;;0.77;0.20;;;;;;;-2.00;69.14;100149.28;5076813;28;20497;-75
2023/11/25 08:49:13;;;;;;;0.88;0.22;;;;;;;-2.01;69.39;100152.69;5075721;28;20044;-75
2023/11/25 08:51:45;;;;;;;0.65;0.30;;;;;;;-2.04;69.15;100151.78;5076334;28;20122;-75
2023/11/25 08:54:13;;;;;;;1.85;0.50;;;;;;;-2.03;69.21;100153.47;5076977;28;20045;-75
2023/11/25 08:56:41;;;;;;;1.00;0.10;;;;;;;-2.01;69.80;100155.22;5075410;28;20044;-75
2023/11/25 08:59:08;;;;;;;0.73;0.25;;;;;;;-2.02;69.47;100156.94;5076097;28;20054;-75
2023/11/25 09:01:39;;;;;;;0.95;0.10;;;;;;;-2.03;69.85;100145.81;5075954;28;20102;-75
2023/11/25 09:04:07;;;;;;;1.95;0.20;;;;;;;-2.03;69.78;100160.31;5076515;28;20095;-76
2023/11/25 09:06:37;;;;;;;1.42;1.30;;;;;;;-2.04;69.35;100162.00;5075565;28;20045;-75
2023/11/25 09:09:04;;;;;;;1.00;0.20;;;;;;;-2.04;70.03;100156.88;5075892;28;20448;-76
2023/11/25 09:11:31;;;;;;;1.50;0.17;;;;;;;-2.04;69.26;100156.03;5076373;28;20044;-76
2023/11/25 09:13:58;;;;;;;1.65;0.30;;;;;;;-2.04;69.33;100162.00;5075562;28;20135;-74
2023/11/25 09:16:27;;;;;;;0.22;0.10;;;;;;;-2.04;69.09;100168.81;5075742;28;20140;-74
2023/11/25 09:18:56;;;;;;;0.22;0.03;;;;;;;-2.04;69.55;100162.00;5075330;28;20080;-74
2023/11/25 09:21:24;;;;;;;0.40;0.10;;;;;;;-2.05;69.10;100167.97;5075714;28;20079;-73
2023/11/25 09:23:51;;;;;;;0.55;0.10;;;;;;;-2.06;69.00;100152.56;5075098;28;20133;-73
2023/11/25 09:26:21;;;;;;;0.38;0.17;;;;;;;-2.07;69.34;100158.53;5075551;28;20128;-72
2023/11/25 09:28:48;;;;;;;0.43;0.10;;;;;;;-2.12;69.25;100152.44;5076245;28;20084;-73
2023/11/25 09:31:16;;;;;;;0.30;0.17;;;;;;;-2.07;68.92;100164.50;5076094;28;20218;-73
2023/11/25 09:33:43;;;;;;;0.60;0.10;;;;;;;-2.09;69.04;100163.59;5075097;28;20126;-73
2023/11/25 09:36:12;;;;;;;1.00;0.20;;;;;;;-2.09;69.07;100158.47;5075011;28;20155;-73
2023/11/25 09:38:39;;;;;;;1.20;0.40;;;;;;;-2.10;68.78;100159.31;5076194;28;20049;-73
2023/11/25 09:41:06;;;;;;;2.60;0.45;;;;;;;-2.10;68.73;100161.88;5074972;28;20131;-73
2023/11/25 09:43:33;;;;;;;0.65;0.20;;;;;;;-2.13;68.91;100169.47;5075318;28;20128;-75
2023/11/25 09:46:01;;;;;;;0.63;0.30;;;;;;;-2.12;68.89;100181.44;5075644;28;20045;-75
2023/11/25 09:48:28;;;;;;;1.42;0.30;;;;;;;-2.15;69.03;100176.25;5074829;28;20084;-75
2023/11/25 09:50:55;;;;;;;1.20;0.20;;;;;;;-2.17;68.54;100177.91;5076016;28;20123;-75
2023/11/25 09:53:31;;;;;;;1.80;0.50;;;;;;;-2.20;68.68;100172.72;5075440;28;20462;-75
2023/11/25 09:56:03;;;;;;;1.60;0.50;;;;;;;-2.22;68.63;100173.50;5074984;28;20074;-74
2023/11/25 09:58:33;;;;;;;0.30;0.20;;;;;;;-2.24;67.89;100173.47;5075014;28;20481;-75
2023/11/25 10:01:00;;;;;;;1.77;0.28;;;;;;;-2.26;68.36;100172.56;5075365;28;20123;-75
2023/11/25 10:03:32;;;;;;;0.40;0.20;;;;;;;-2.28;68.30;100171.66;5074803;28;20144;-72
2023/11/25 10:06:02;;;;;;;0.75;0.13;;;;;;;-2.29;68.43;100162.28;5075558;28;20124;-72
2023/11/25 10:08:32;;;;;;;0.22;0.10;;;;;;;-2.30;68.24;100173.34;5074337;28;20045;-72
2023/11/25 10:11:01;;;;;;;0.20;0.10;;;;;;;-2.32;68.26;100172.44;5074301;28;20045;-72
2023/11/25 10:13:33;;;;;;;1.20;0.20;;;;;;;-2.33;68.19;100160.47;5074167;28;20095;-73
2023/11/25 10:16:01;;;;;;;2.00;0.10;;;;;;;-2.37;68.24;100174.88;5074220;28;20063;-74
2023/11/25 10:18:28;;;;;;;0.90;0.15;;;;;;;-2.37;68.18;100186.78;5074541;28;20080;-74
2023/11/25 10:20:58;;;;;;;0.40;0.15;;;;;;;-2.40;67.65;100179.06;5074128;28;20131;-74
2023/11/25 10:23:25;;;;;;;0.68;0.10;;;;;;;-2.42;67.91;100183.25;5074886;28;20056;-74
2023/11/25 10:25:55;;;;;;;0.98;0.10;;;;;;;-2.44;68.28;100182.38;5074063;28;20131;-74
2023/11/25 10:28:25;;;;;;;0.65;0.20;;;;;;;-2.47;67.69;100179.75;5073880;28;20139;-73
2023/11/25 10:30:56;;;;;;;2.13;0.10;;;;;;;-2.51;67.89;100184.75;5074226;28;20051;-73
2023/11/25 10:33:24;;;;;;;1.25;0.20;;;;;;;-2.54;67.76;100182.13;5073969;28;20066;-73
2023/11/25 10:35:51;;;;;;;0.00;0.00;;;;;;;-2.55;67.39;100185.53;5074746;28;20143;-74
2023/11/25 10:38:21;;;;;;;0.63;0.10;;;;;;;-2.60;67.61;100171.75;5073866;28;20052;-73
2023/11/25 10:40:49;;;;;;;0.85;0.10;;;;;;;-2.59;67.29;100181.16;5074847;28;20446;-73
2023/11/25 10:43:19;;;;;;;0.28;0.10;;;;;;;-2.61;67.30;100172.59;5074666;28;20466;-74
2023/11/25 10:45:47;;;;;;;0.32;0.10;;;;;;;-2.64;67.61;100179.31;5073739;28;20044;-73
2023/11/25 10:48:14;;;;;;;1.17;0.20;;;;;;;-2.65;67.98;100175.88;5074498;28;20041;-73
2023/11/25 10:50:43;;;;;;;0.52;0.20;;;;;;;-2.66;67.76;100179.28;5075047;28;20155;-73
2023/11/25 10:53:14;;;;;;;0.50;0.17;;;;;;;-2.66;67.28;100191.19;5073850;28;20060;-73
2023/11/25 10:55:43;;;;;;;0.17;0.10;;;;;;;-2.67;67.48;100182.66;5074367;28;20094;-74
2023/11/25 10:58:11;;;;;;;0.25;0.10;;;;;;;-2.70;67.20;100187.72;5073558;28;20486;-73
2023/11/25 11:00:40;;;;;;;1.65;0.10;;;;;;;-2.71;67.62;100199.59;5073575;28;20050;-73
2023/11/25 11:03:13;;;;;;;0.60;0.20;;;;;;;-2.72;67.67;100194.47;5073347;28;20143;-75
2023/11/25 11:05:45;;;;;;;0.20;0.10;;;;;;;-2.73;67.76;100200.41;5073491;28;20076;-74
2023/11/25 11:08:19;;;;;;;0.80;0.20;;;;;;;-2.74;67.74;100204.63;5074257;28;20123;-75
2023/11/25 11:10:54;;;;;;;0.85;0.10;;;;;;;-2.75;67.41;100197.81;5073313;28;20054;-75
2023/11/25 11:13:30;;;;;;;2.40;0.47;;;;;;;-2.77;67.51;100203.69;5073496;28;20131;-86
2023/11/25 11:16:03;;;;;;;1.85;0.10;;;;;;;-2.82;67.58;100200.16;5074257;28;20087;-86
2023/11/25 11:18:35;;;;;;;0.10;0.00;;;;;;;-2.78;67.54;100207.09;5074709;28;20144;-87
2023/11/25 11:21:03;;;;;;;0.10;0.00;;;;;;;-2.75;67.87;100227.63;5075329;28;20409;-87
2023/11/25 11:23:36;;;;;;;0.75;0.20;;;;;;;-2.76;67.66;100225.88;5074357;28;20045;-73
2023/11/25 11:26:16;;;;;;;0.50;0.13;;;;;;;-2.74;67.99;100219.09;5073160;28;20110;-73
2023/11/25 11:28:49;;;;;;;0.70;0.35;;;;;;;-2.74;67.88;100224.22;5073976;28;20040;-76
2023/11/25 11:31:49;;;;;;;0.95;0.15;;;;;;;-2.74;67.81;100229.34;5073244;28;20127;-76
2023/11/25 11:34:18;;;;;;;0.45;0.10;;;;;;;-2.73;67.93;100231.09;5074349;28;20087;-72